No particular awareness of the weather is required.    There are no Weather-warnings


Meteo18 Weather Cam more information Meteo18 Weather Cam


Thunder radar more information blitzortung!


Rain radar more information rain snow radar


Visit our other weather sites:

Template documentation
and downloads

And another site



Weather Underground History page Text

Daily Summary for June 27, 2017 Units:  Both    English   Metric
« Previous Day
Next Day »
Daily Weekly Monthly Yearly Custom
  High: Low: Average:
Temperature: 77.2 °F /  25.1 °C 61 °F /  16.1 °C 68.2 °F /  20.1 °C
Dew Point: 68 °F /  20.0 °C 59.7 °F /  15.4 °C 63 °F /  17.2 °C
Humidity: 97 % 64 % 84 %
Wind Speed: 14 mph /  22.5 km/h - 2.9 mph /  4.7 km/h
Wind Gust: 20 mph /  32.2 km/h - -
Wind:- - SSW
Pressure: 29.9 in /  1011.4 hPa 29.6 in /  1002.9 hPa -
Precipitation: 0.09 in /  2.3 mm    
Historical Graphs
 
 
Tabular Data for June 27, 2017
Time Temperature Dew Point Pressure Wind Wind Speed Wind Gust Humidity Rainfall Rate (Hourly)
00:02 64.2 °F /  17.9 °C 62.4 °F /  16.9 °C 29.9 in /  1011.4 hPa Calm     94 % 0 in /  0.0 mm
00:12 64.2 °F /  17.9 °C 62.8 °F /  17.1 °C 29.9 in /  1011.4 hPa Calm     95 % 0 in /  0.0 mm
00:17 64 °F /  17.8 °C 62.2 °F /  16.8 °C 29.9 in /  1011.4 hPa Calm     94 % 0 in /  0.0 mm
00:22 64 °F /  17.8 °C 62.2 °F /  16.8 °C 29.9 in /  1011.1 hPa Calm     94 % 0 in /  0.0 mm
00:32 63.9 °F /  17.7 °C 62.4 °F /  16.9 °C 29.9 in /  1011.1 hPa Calm     95 % 0 in /  0.0 mm
00:42 63.7 °F /  17.6 °C 62.2 °F /  16.8 °C 29.9 in /  1011.1 hPa Calm     95 % 0 in /  0.0 mm
00:52 63.3 °F /  17.4 °C 61.5 °F /  16.4 °C 29.9 in /  1011.1 hPa Calm     94 % 0 in /  0.0 mm
00:57 63.3 °F /  17.4 °C 61.9 °F /  16.6 °C 29.9 in /  1011.1 hPa Calm     95 % 0 in /  0.0 mm
01:02 63.1 °F /  17.3 °C 61.7 °F /  16.5 °C 29.9 in /  1011.1 hPa Calm     95 % 0 in /  0.0 mm
01:12 63.1 °F /  17.3 °C 61.7 °F /  16.5 °C 29.8 in /  1010.7 hPa Calm     95 % 0 in /  0.0 mm
01:17 63.1 °F /  17.3 °C 61.7 °F /  16.5 °C 29.8 in /  1010.7 hPa Calm     95 % 0 in /  0.0 mm
01:22 63.1 °F /  17.3 °C 61.7 °F /  16.5 °C 29.8 in /  1010.7 hPa Calm     95 % 0 in /  0.0 mm
01:27 63 °F /  17.2 °C 61.5 °F /  16.4 °C 29.8 in /  1010.7 hPa Calm     95 % 0 in /  0.0 mm
01:32 62.8 °F /  17.1 °C 61.3 °F /  16.3 °C 29.8 in /  1010.7 hPa Calm     95 % 0 in /  0.0 mm
01:37 62.8 °F /  17.1 °C 61.3 °F /  16.3 °C 29.8 in /  1010.7 hPa Calm     95 % 0 in /  0.0 mm
01:42 62.6 °F /  17.0 °C 61.2 °F /  16.2 °C 29.8 in /  1010.7 hPa Calm     95 % 0 in /  0.0 mm
01:52 62.4 °F /  16.9 °C 61.3 °F /  16.3 °C 29.8 in /  1010.7 hPa Calm     96 % 0 in /  0.0 mm
01:57 62.8 °F /  17.1 °C 61.7 °F /  16.5 °C 29.8 in /  1010.7 hPa Calm     96 % 0 in /  0.0 mm
02:02 63.1 °F /  17.3 °C 62.1 °F /  16.7 °C 29.8 in /  1010.4 hPa NNE 2 mph /  3.2 km/h   96 % 0 in /  0.0 mm
02:12 61.9 °F /  16.6 °C 60.1 °F /  15.6 °C 29.8 in /  1010.4 hPa Calm   2 mph /  3.2 km/h 94 % 0 in /  0.0 mm
02:17 61.9 °F /  16.6 °C 60.8 °F /  16.0 °C 29.8 in /  1010.4 hPa Calm   2 mph /  3.2 km/h 96 % 0 in /  0.0 mm
02:22 61.9 °F /  16.6 °C 60.4 °F /  15.8 °C 29.8 in /  1010.4 hPa Calm   2 mph /  3.2 km/h 95 % 0 in /  0.0 mm
02:27 61.9 °F /  16.6 °C 60.8 °F /  16.0 °C 29.8 in /  1010.4 hPa Calm   2 mph /  3.2 km/h 96 % 0 in /  0.0 mm
02:32 61.9 °F /  16.6 °C 60.4 °F /  15.8 °C 29.8 in /  1010.4 hPa Calm   2 mph /  3.2 km/h 95 % 0 in /  0.0 mm
02:37 61.7 °F /  16.5 °C 60.3 °F /  15.7 °C 29.8 in /  1010.0 hPa Calm     95 % 0 in /  0.0 mm
02:42 61.5 °F /  16.4 °C 60.1 °F /  15.6 °C 29.8 in /  1010.0 hPa Calm     95 % 0 in /  0.0 mm
02:47 61.3 °F /  16.3 °C 59.9 °F /  15.5 °C 29.8 in /  1010.0 hPa Calm     95 % 0 in /  0.0 mm
02:52 61.2 °F /  16.2 °C 60.1 °F /  15.6 °C 29.8 in /  1010.0 hPa Calm     96 % 0 in /  0.0 mm
02:57 61.3 °F /  16.3 °C 60.3 °F /  15.7 °C 29.8 in /  1010.0 hPa Calm     96 % 0 in /  0.0 mm
03:02 61.3 °F /  16.3 °C 60.3 °F /  15.7 °C 29.8 in /  1010.0 hPa Calm     96 % 0 in /  0.0 mm
03:12 61.2 °F /  16.2 °C 60.1 °F /  15.6 °C 29.8 in /  1010.4 hPa WNW 2 mph /  3.2 km/h   96 % 0 in /  0.0 mm
03:17 61 °F /  16.1 °C 59.9 °F /  15.5 °C 29.8 in /  1010.4 hPa Calm   3 mph /  4.8 km/h 96 % 0 in /  0.0 mm
03:22 61.2 °F /  16.2 °C 60.1 °F /  15.6 °C 29.8 in /  1010.4 hPa Calm   3 mph /  4.8 km/h 96 % 0 in /  0.0 mm
03:27 61.2 °F /  16.2 °C 60.1 °F /  15.6 °C 29.8 in /  1010.4 hPa Calm   3 mph /  4.8 km/h 96 % 0 in /  0.0 mm
03:32 61.2 °F /  16.2 °C 60.1 °F /  15.6 °C 29.8 in /  1010.0 hPa Calm   3 mph /  4.8 km/h 96 % 0 in /  0.0 mm
03:42 61.3 °F /  16.3 °C 60.3 °F /  15.7 °C 29.8 in /  1010.0 hPa Calm   1 mph /  1.6 km/h 96 % 0 in /  0.0 mm
03:47 61.3 °F /  16.3 °C 60.3 °F /  15.7 °C 29.8 in /  1010.0 hPa NE 1 mph /  1.6 km/h   96 % 0 in /  0.0 mm
03:52 61.3 °F /  16.3 °C 60.3 °F /  15.7 °C 29.8 in /  1010.0 hPa Calm     96 % 0 in /  0.0 mm
04:02 61.3 °F /  16.3 °C 60.3 °F /  15.7 °C 29.8 in /  1009.7 hPa NNE 2 mph /  3.2 km/h 2 mph /  3.2 km/h 96 % 0 in /  0.0 mm
04:12 61 °F /  16.1 °C 59.9 °F /  15.5 °C 29.8 in /  1009.7 hPa Calm   3 mph /  4.8 km/h 96 % 0 in /  0.0 mm
04:17 61 °F /  16.1 °C 59.9 °F /  15.5 °C 29.8 in /  1009.7 hPa Calm   3 mph /  4.8 km/h 96 % 0 in /  0.0 mm
04:22 61 °F /  16.1 °C 59.9 °F /  15.5 °C 29.8 in /  1009.7 hPa Calm   3 mph /  4.8 km/h 96 % 0 in /  0.0 mm
04:32 61 °F /  16.1 °C 59.9 °F /  15.5 °C 29.8 in /  1009.7 hPa Calm     96 % 0 in /  0.0 mm
04:42 61 °F /  16.1 °C 59.9 °F /  15.5 °C 29.8 in /  1009.7 hPa Calm     96 % 0 in /  0.0 mm
04:47 61.2 °F /  16.2 °C 60.1 °F /  15.6 °C 29.8 in /  1009.7 hPa Calm     96 % 0 in /  0.0 mm
04:52 61.3 °F /  16.3 °C 60.3 °F /  15.7 °C 29.8 in /  1009.4 hPa Calm     96 % 0 in /  0.0 mm
04:57 61.5 °F /  16.4 °C 60.4 °F /  15.8 °C 29.8 in /  1009.7 hPa Calm     96 % 0 in /  0.0 mm
05:02 61.5 °F /  16.4 °C 60.4 °F /  15.8 °C 29.8 in /  1009.7 hPa Calm     96 % 0 in /  0.0 mm
05:07 61.5 °F /  16.4 °C 60.4 °F /  15.8 °C 29.8 in /  1009.7 hPa Calm     96 % 0 in /  0.0 mm
05:12 61.5 °F /  16.4 °C 60.4 °F /  15.8 °C 29.8 in /  1009.4 hPa Calm     96 % 0 in /  0.0 mm
05:17 61.7 °F /  16.5 °C 60.6 °F /  15.9 °C 29.8 in /  1009.4 hPa Calm     96 % 0 in /  0.0 mm
05:22 62.1 °F /  16.7 °C 61.2 °F /  16.2 °C 29.8 in /  1009.4 hPa Calm     97 % 0 in /  0.0 mm
05:32 62.1 °F /  16.7 °C 61 °F /  16.1 °C 29.8 in /  1009.4 hPa Calm     96 % 0 in /  0.0 mm
05:42 62.1 °F /  16.7 °C 61 °F /  16.1 °C 29.8 in /  1009.4 hPa Calm     96 % 0 in /  0.0 mm
05:47 62.1 °F /  16.7 °C 61 °F /  16.1 °C 29.8 in /  1009.4 hPa Calm     96 % 0 in /  0.0 mm
05:52 62.2 °F /  16.8 °C 61.2 °F /  16.2 °C 29.8 in /  1009.4 hPa Calm     96 % 0 in /  0.0 mm
06:02 62.1 °F /  16.7 °C 61 °F /  16.1 °C 29.8 in /  1009.4 hPa Calm     96 % 0 in /  0.0 mm
06:12 61.9 °F /  16.6 °C 60.8 °F /  16.0 °C 29.8 in /  1009.4 hPa Calm     96 % 0 in /  0.0 mm
06:17 61.9 °F /  16.6 °C 60.8 °F /  16.0 °C 29.8 in /  1009.4 hPa Calm     96 % 0 in /  0.0 mm
06:22 61.9 °F /  16.6 °C 60.8 °F /  16.0 °C 29.8 in /  1009.4 hPa Calm     96 % 0 in /  0.0 mm
06:32 61.7 °F /  16.5 °C 60.6 °F /  15.9 °C 29.8 in /  1009.4 hPa Calm     96 % 0 in /  0.0 mm
06:42 61.5 °F /  16.4 °C 60.4 °F /  15.8 °C 29.8 in /  1009.4 hPa Calm     96 % 0 in /  0.0 mm
06:47 61.5 °F /  16.4 °C 60.4 °F /  15.8 °C 29.8 in /  1009.4 hPa Calm     96 % 0 in /  0.0 mm
06:52 61.5 °F /  16.4 °C 60.4 °F /  15.8 °C 29.8 in /  1009.4 hPa Calm     96 % 0 in /  0.0 mm
06:57 61.5 °F /  16.4 °C 60.4 °F /  15.8 °C 29.8 in /  1009.4 hPa Calm     96 % 0 in /  0.0 mm
07:02 61.3 °F /  16.3 °C 60.3 °F /  15.7 °C 29.8 in /  1009.4 hPa Calm     96 % 0 in /  0.0 mm
07:12 61.3 °F /  16.3 °C 60.3 °F /  15.7 °C 29.8 in /  1009.4 hPa Calm     96 % 0 in /  0.0 mm
07:17 61.3 °F /  16.3 °C 60.4 °F /  15.8 °C 29.8 in /  1009.4 hPa Calm     97 % 0 in /  0.0 mm
07:22 61.5 °F /  16.4 °C 60.6 °F /  15.9 °C 29.8 in /  1009.4 hPa Calm     97 % 0 in /  0.0 mm
07:32 61.9 °F /  16.6 °C 60.8 °F /  16.0 °C 29.8 in /  1009.4 hPa SSW 1 mph /  1.6 km/h   96 % 0 in /  0.0 mm
07:37 62.2 °F /  16.8 °C 61.3 °F /  16.3 °C 29.8 in /  1009.4 hPa Calm   2 mph /  3.2 km/h 97 % 0 in /  0.0 mm
07:42 62.8 °F /  17.1 °C 61.9 °F /  16.6 °C 29.8 in /  1009.0 hPa Calm   2 mph /  3.2 km/h 97 % 0 in /  0.0 mm
07:47 63.1 °F /  17.3 °C 62.1 °F /  16.7 °C 29.8 in /  1009.4 hPa SSW 1 mph /  1.6 km/h 2 mph /  3.2 km/h 96 % 0 in /  0.0 mm
07:52 63.3 °F /  17.4 °C 62.2 °F /  16.8 °C 29.8 in /  1009.0 hPa SSW 1 mph /  1.6 km/h 2 mph /  3.2 km/h 96 % 0 in /  0.0 mm
08:02 63.9 °F /  17.7 °C 62.8 °F /  17.1 °C 29.8 in /  1009.4 hPa WSW 5 mph /  8.0 km/h 5 mph /  8.0 km/h 96 % 0 in /  0.0 mm
08:07 64.2 °F /  17.9 °C 63.1 °F /  17.3 °C 29.8 in /  1009.4 hPa SW 4 mph /  6.4 km/h 8 mph /  12.9 km/h 96 % 0 in /  0.0 mm
08:12 64.8 °F /  18.2 °C 63.7 °F /  17.6 °C 29.8 in /  1009.4 hPa South 3 mph /  4.8 km/h 8 mph /  12.9 km/h 96 % 0 in /  0.0 mm
08:17 64.9 °F /  18.3 °C 63.5 °F /  17.5 °C 29.8 in /  1009.4 hPa SSW 2 mph /  3.2 km/h 8 mph /  12.9 km/h 95 % 0 in /  0.0 mm
08:22 65.3 °F /  18.5 °C 63.5 °F /  17.5 °C 29.8 in /  1009.4 hPa SSW 2 mph /  3.2 km/h 8 mph /  12.9 km/h 94 % 0 in /  0.0 mm
08:32 66 °F /  18.9 °C 63.9 °F /  17.7 °C 29.8 in /  1009.0 hPa SW 3 mph /  4.8 km/h 8 mph /  12.9 km/h 93 % 0 in /  0.0 mm
08:42 66.7 °F /  19.3 °C 64 °F /  17.8 °C 29.8 in /  1009.0 hPa SW 4 mph /  6.4 km/h 7 mph /  11.3 km/h 91 % 0 in /  0.0 mm
08:47 67.3 °F /  19.6 °C 64.9 °F /  18.3 °C 29.8 in /  1009.0 hPa SW 4 mph /  6.4 km/h 6 mph /  9.7 km/h 92 % 0 in /  0.0 mm
08:52 67.6 °F /  19.8 °C 64.9 °F /  18.3 °C 29.8 in /  1009.0 hPa SSW 3 mph /  4.8 km/h 6 mph /  9.7 km/h 91 % 0 in /  0.0 mm
09:02 67.8 °F /  19.9 °C 64.2 °F /  17.9 °C 29.8 in /  1009.0 hPa SW 5 mph /  8.0 km/h 6 mph /  9.7 km/h 88 % 0 in /  0.0 mm
09:12 68.4 °F /  20.2 °C 64.4 °F /  18.0 °C 29.8 in /  1009.0 hPa SSW 2 mph /  3.2 km/h 9 mph /  14.5 km/h 87 % 0.01 in /  0.3 mm
09:17 68.7 °F /  20.4 °C 64 °F /  17.8 °C 29.8 in /  1009.0 hPa SSW 6 mph /  9.7 km/h 11 mph /  17.7 km/h 85 % 0.01 in /  0.3 mm
09:22 68.7 °F /  20.4 °C 64 °F /  17.8 °C 29.8 in /  1009.0 hPa SW 7 mph /  11.3 km/h 11 mph /  17.7 km/h 85 % 0.01 in /  0.3 mm
09:32 69.1 °F /  20.6 °C 64.4 °F /  18.0 °C 29.8 in /  1009.0 hPa South 6 mph /  9.7 km/h 11 mph /  17.7 km/h 85 % 0.01 in /  0.3 mm
09:37 69.3 °F /  20.7 °C 64.6 °F /  18.1 °C 29.8 in /  1009.0 hPa SSE 4 mph /  6.4 km/h 10 mph /  16.1 km/h 85 % 0.01 in /  0.3 mm
09:42 69.1 °F /  20.6 °C 63.7 °F /  17.6 °C 29.8 in /  1009.0 hPa SW 3 mph /  4.8 km/h 10 mph /  16.1 km/h 83 % 0.01 in /  0.3 mm
09:52 69.6 °F /  20.9 °C 64.2 °F /  17.9 °C 29.8 in /  1009.0 hPa SSW 3 mph /  4.8 km/h 10 mph /  16.1 km/h 83 % 0.01 in /  0.3 mm
10:02 70 °F /  21.1 °C 64.2 °F /  17.9 °C 29.8 in /  1009.0 hPa SSW 8 mph /  12.9 km/h 9 mph /  14.5 km/h 82 % 0.01 in /  0.3 mm
10:12 70.5 °F /  21.4 °C 64.8 °F /  18.2 °C 29.8 in /  1009.0 hPa South 3 mph /  4.8 km/h 8 mph /  12.9 km/h 82 % 0 in /  0.0 mm
10:17 71.1 °F /  21.7 °C 64.6 °F /  18.1 °C 29.8 in /  1009.0 hPa SSW 7 mph /  11.3 km/h 11 mph /  17.7 km/h 80 % 0 in /  0.0 mm
10:22 71.1 °F /  21.7 °C 63.9 °F /  17.7 °C 29.8 in /  1008.7 hPa SSW 9 mph /  14.5 km/h 11 mph /  17.7 km/h 78 % 0 in /  0.0 mm
10:32 71.8 °F /  22.1 °C 64.2 °F /  17.9 °C 29.8 in /  1008.7 hPa SW 4 mph /  6.4 km/h 11 mph /  17.7 km/h 77 % 0 in /  0.0 mm
10:42 72.5 °F /  22.5 °C 64 °F /  17.8 °C 29.8 in /  1008.7 hPa SW 7 mph /  11.3 km/h 11 mph /  17.7 km/h 75 % 0 in /  0.0 mm
10:47 72.7 °F /  22.6 °C 64.2 °F /  17.9 °C 29.8 in /  1008.7 hPa SW 2 mph /  3.2 km/h 10 mph /  16.1 km/h 75 % 0 in /  0.0 mm
10:52 73.2 °F /  22.9 °C 64 °F /  17.8 °C 29.8 in /  1008.7 hPa SE 4 mph /  6.4 km/h 10 mph /  16.1 km/h 73 % 0 in /  0.0 mm
10:57 73.6 °F /  23.1 °C 64.8 °F /  18.2 °C 29.8 in /  1008.7 hPa SSE 5 mph /  8.0 km/h 11 mph /  17.7 km/h 74 % 0 in /  0.0 mm
11:02 73.8 °F /  23.2 °C 63.7 °F /  17.6 °C 29.8 in /  1008.7 hPa SW 9 mph /  14.5 km/h 11 mph /  17.7 km/h 71 % 0 in /  0.0 mm
11:12 74.1 °F /  23.4 °C 64.6 °F /  18.1 °C 29.8 in /  1008.4 hPa WSW 5 mph /  8.0 km/h 14 mph /  22.5 km/h 72 % 0 in /  0.0 mm
11:17 74.3 °F /  23.5 °C 64.8 °F /  18.2 °C 29.8 in /  1008.4 hPa WSW 10 mph /  16.1 km/h 14 mph /  22.5 km/h 72 % 0 in /  0.0 mm
11:22 73.9 °F /  23.3 °C 63.9 °F /  17.7 °C 29.8 in /  1008.4 hPa SW 5 mph /  8.0 km/h 14 mph /  22.5 km/h 71 % 0 in /  0.0 mm
11:32 73.8 °F /  23.2 °C 63.7 °F /  17.6 °C 29.8 in /  1008.4 hPa SSW 5 mph /  8.0 km/h 13 mph /  20.9 km/h 71 % 0 in /  0.0 mm
11:37 73.8 °F /  23.2 °C 63.7 °F /  17.6 °C 29.8 in /  1008.4 hPa WSW 7 mph /  11.3 km/h 12 mph /  19.3 km/h 71 % 0 in /  0.0 mm
11:42 73.8 °F /  23.2 °C 63.7 °F /  17.6 °C 29.8 in /  1008.4 hPa SW 6 mph /  9.7 km/h 12 mph /  19.3 km/h 71 % 0 in /  0.0 mm
11:47 73.8 °F /  23.2 °C 63 °F /  17.2 °C 29.8 in /  1008.4 hPa SW 7 mph /  11.3 km/h 13 mph /  20.9 km/h 69 % 0 in /  0.0 mm
11:52 73.6 °F /  23.1 °C 62.8 °F /  17.1 °C 29.8 in /  1008.4 hPa WSW 2 mph /  3.2 km/h 13 mph /  20.9 km/h 69 % 0 in /  0.0 mm
12:02 73.9 °F /  23.3 °C 63.1 °F /  17.3 °C 29.8 in /  1008.4 hPa WSW 6 mph /  9.7 km/h 13 mph /  20.9 km/h 69 % 0 in /  0.0 mm
12:12 74.1 °F /  23.4 °C 63.3 °F /  17.4 °C 29.8 in /  1008.0 hPa SW 7 mph /  11.3 km/h 10 mph /  16.1 km/h 69 % 0 in /  0.0 mm
12:17 73.8 °F /  23.2 °C 63 °F /  17.2 °C 29.8 in /  1008.0 hPa SSW 4 mph /  6.4 km/h 11 mph /  17.7 km/h 69 % 0 in /  0.0 mm
12:22 73.8 °F /  23.2 °C 63 °F /  17.2 °C 29.8 in /  1008.0 hPa SW 5 mph /  8.0 km/h 11 mph /  17.7 km/h 69 % 0 in /  0.0 mm
12:32 73.9 °F /  23.3 °C 64.4 °F /  18.0 °C 29.8 in /  1008.0 hPa SSW 3 mph /  4.8 km/h 14 mph /  22.5 km/h 72 % 0 in /  0.0 mm
12:37 73.8 °F /  23.2 °C 64.6 °F /  18.1 °C 29.8 in /  1008.0 hPa SSW 5 mph /  8.0 km/h 14 mph /  22.5 km/h 73 % 0 in /  0.0 mm
12:42 73.8 °F /  23.2 °C 64.6 °F /  18.1 °C 29.8 in /  1008.0 hPa SSW 8 mph /  12.9 km/h 11 mph /  17.7 km/h 73 % 0 in /  0.0 mm
12:47 73.9 °F /  23.3 °C 65.1 °F /  18.4 °C 29.8 in /  1008.0 hPa South 8 mph /  12.9 km/h 11 mph /  17.7 km/h 74 % 0 in /  0.0 mm
12:52 73.9 °F /  23.3 °C 64.8 °F /  18.2 °C 29.8 in /  1008.0 hPa WSW 8 mph /  12.9 km/h 11 mph /  17.7 km/h 73 % 0 in /  0.0 mm
12:57 74.1 °F /  23.4 °C 65.3 °F /  18.5 °C 29.8 in /  1008.0 hPa SSW 4 mph /  6.4 km/h 12 mph /  19.3 km/h 74 % 0 in /  0.0 mm
13:02 73.9 °F /  23.3 °C 64.8 °F /  18.2 °C 29.8 in /  1007.7 hPa SW 2 mph /  3.2 km/h 12 mph /  19.3 km/h 73 % 0 in /  0.0 mm
13:12 73.2 °F /  22.9 °C 64.8 °F /  18.2 °C 29.8 in /  1007.7 hPa SE 1 mph /  1.6 km/h 9 mph /  14.5 km/h 75 % 0 in /  0.0 mm
13:17 73 °F /  22.8 °C 64.2 °F /  17.9 °C 29.8 in /  1007.7 hPa SSW 3 mph /  4.8 km/h 9 mph /  14.5 km/h 74 % 0 in /  0.0 mm
13:27 73.2 °F /  22.9 °C 65.1 °F /  18.4 °C 29.7 in /  1007.3 hPa SW 1 mph /  1.6 km/h 8 mph /  12.9 km/h 76 % 0 in /  0.0 mm
13:32 74.3 °F /  23.5 °C 65.5 °F /  18.6 °C 29.7 in /  1007.3 hPa South 6 mph /  9.7 km/h 8 mph /  12.9 km/h 74 % 0 in /  0.0 mm
13:42 75 °F /  23.9 °C 63.7 °F /  17.6 °C 29.7 in /  1007.3 hPa SW 5 mph /  8.0 km/h 11 mph /  17.7 km/h 68 % 0 in /  0.0 mm
13:47 75.2 °F /  24.0 °C 65.1 °F /  18.4 °C 29.7 in /  1007.3 hPa SSW 9 mph /  14.5 km/h 11 mph /  17.7 km/h 71 % 0 in /  0.0 mm
13:52 75.4 °F /  24.1 °C 64.9 °F /  18.3 °C 29.7 in /  1007.3 hPa SW 5 mph /  8.0 km/h 10 mph /  16.1 km/h 70 % 0 in /  0.0 mm
13:57 76.3 °F /  24.6 °C 65.3 °F /  18.5 °C 29.7 in /  1007.0 hPa SSE 2 mph /  3.2 km/h 10 mph /  16.1 km/h 69 % 0 in /  0.0 mm
14:02 77.2 °F /  25.1 °C 64.6 °F /  18.1 °C 29.7 in /  1007.0 hPa South 6 mph /  9.7 km/h 11 mph /  17.7 km/h 65 % 0 in /  0.0 mm
14:12 76.6 °F /  24.8 °C 63.5 °F /  17.5 °C 29.7 in /  1006.7 hPa SW 3 mph /  4.8 km/h 12 mph /  19.3 km/h 64 % 0 in /  0.0 mm
14:17 76.5 °F /  24.7 °C 63.9 °F /  17.7 °C 29.7 in /  1006.7 hPa SSE 3 mph /  4.8 km/h 12 mph /  19.3 km/h 65 % 0 in /  0.0 mm
14:22 76.5 °F /  24.7 °C 63.9 °F /  17.7 °C 29.7 in /  1006.7 hPa WSW 2 mph /  3.2 km/h 12 mph /  19.3 km/h 65 % 0 in /  0.0 mm
14:27 75.9 °F /  24.4 °C 64.2 °F /  17.9 °C 29.7 in /  1006.7 hPa West 3 mph /  4.8 km/h 7 mph /  11.3 km/h 67 % 0 in /  0.0 mm
14:32 73 °F /  22.8 °C 64.9 °F /  18.3 °C 29.7 in /  1006.7 hPa West 10 mph /  16.1 km/h 10 mph /  16.1 km/h 76 % 0 in /  0.0 mm
14:37 71.1 °F /  21.7 °C 64.9 °F /  18.3 °C 29.7 in /  1006.7 hPa NW 3 mph /  4.8 km/h 19 mph /  30.6 km/h 81 % 0.03 in /  0.8 mm
14:42 70.3 °F /  21.3 °C 64.6 °F /  18.1 °C 29.7 in /  1006.7 hPa WNW 1 mph /  1.6 km/h 19 mph /  30.6 km/h 82 % 0.03 in /  0.8 mm
14:47 70 °F /  21.1 °C 64.9 °F /  18.3 °C 29.7 in /  1006.7 hPa WNW 4 mph /  6.4 km/h 19 mph /  30.6 km/h 84 % 0.04 in /  1.0 mm
14:52 69.3 °F /  20.7 °C 65.3 °F /  18.5 °C 29.7 in /  1006.7 hPa WNW 2 mph /  3.2 km/h 13 mph /  20.9 km/h 87 % 0.04 in /  1.0 mm
14:57 69.3 °F /  20.7 °C 65.3 °F /  18.5 °C 29.7 in /  1006.7 hPa Calm   8 mph /  12.9 km/h 87 % 0.09 in /  2.3 mm
15:02 70 °F /  21.1 °C 66.6 °F /  19.2 °C 29.7 in /  1006.3 hPa NE 1 mph /  1.6 km/h 8 mph /  12.9 km/h 89 % 0.09 in /  2.3 mm
15:12 71.2 °F /  21.8 °C 67.1 °F /  19.5 °C 29.7 in /  1006.3 hPa NNE 2 mph /  3.2 km/h 5 mph /  8.0 km/h 87 % 0.09 in /  2.3 mm
15:17 71.8 °F /  22.1 °C 66.4 °F /  19.1 °C 29.7 in /  1006.3 hPa Calm   4 mph /  6.4 km/h 83 % 0.09 in /  2.3 mm
15:27 72.7 °F /  22.6 °C 67.8 °F /  19.9 °C 29.7 in /  1006.3 hPa NE 3 mph /  4.8 km/h 4 mph /  6.4 km/h 85 % 0.08 in /  2.0 mm
15:32 72.3 °F /  22.4 °C 66.6 °F /  19.2 °C 29.7 in /  1006.0 hPa NNE 1 mph /  1.6 km/h 4 mph /  6.4 km/h 82 % 0.08 in /  2.0 mm
15:37 72.9 °F /  22.7 °C 67.1 °F /  19.5 °C 29.7 in /  1006.0 hPa NE 4 mph /  6.4 km/h 5 mph /  8.0 km/h 82 % 0.06 in /  1.5 mm
15:42 73.8 °F /  23.2 °C 66.9 °F /  19.4 °C 29.7 in /  1006.0 hPa ENE 2 mph /  3.2 km/h 5 mph /  8.0 km/h 79 % 0.06 in /  1.5 mm
15:47 74.7 °F /  23.7 °C 68 °F /  20.0 °C 29.7 in /  1006.0 hPa NE 1 mph /  1.6 km/h 6 mph /  9.7 km/h 80 % 0.05 in /  1.3 mm
15:52 75 °F /  23.9 °C 66.9 °F /  19.4 °C 29.7 in /  1005.6 hPa NE 2 mph /  3.2 km/h 6 mph /  9.7 km/h 76 % 0.05 in /  1.3 mm
15:57 75 °F /  23.9 °C 66.6 °F /  19.2 °C 29.7 in /  1005.6 hPa NE 2 mph /  3.2 km/h 6 mph /  9.7 km/h 75 % 0 in /  0.0 mm
16:02 75.2 °F /  24.0 °C 67.1 °F /  19.5 °C 29.7 in /  1005.6 hPa ENE 2 mph /  3.2 km/h 6 mph /  9.7 km/h 76 % 0 in /  0.0 mm
16:12 76.5 °F /  24.7 °C 66 °F /  18.9 °C 29.7 in /  1005.6 hPa SW 1 mph /  1.6 km/h 6 mph /  9.7 km/h 70 % 0 in /  0.0 mm
16:17 77.2 °F /  25.1 °C 66.6 °F /  19.2 °C 29.7 in /  1005.6 hPa Calm   5 mph /  8.0 km/h 70 % 0 in /  0.0 mm
16:22 77 °F /  25.0 °C 66.4 °F /  19.1 °C 29.7 in /  1005.3 hPa East 6 mph /  9.7 km/h 6 mph /  9.7 km/h 70 % 0 in /  0.0 mm
16:32 76.5 °F /  24.7 °C 66 °F /  18.9 °C 29.7 in /  1005.3 hPa East 3 mph /  4.8 km/h 7 mph /  11.3 km/h 70 % 0 in /  0.0 mm
16:37 76.3 °F /  24.6 °C 65.8 °F /  18.8 °C 29.7 in /  1005.3 hPa ENE 5 mph /  8.0 km/h 7 mph /  11.3 km/h 70 % 0 in /  0.0 mm
16:42 76.5 °F /  24.7 °C 66.4 °F /  19.1 °C 29.7 in /  1005.3 hPa East 2 mph /  3.2 km/h 7 mph /  11.3 km/h 71 % 0 in /  0.0 mm
16:52 76.6 °F /  24.8 °C 66.2 °F /  19.0 °C 29.7 in /  1005.3 hPa NE 2 mph /  3.2 km/h 6 mph /  9.7 km/h 70 % 0 in /  0.0 mm
16:57 76.6 °F /  24.8 °C 66.2 °F /  19.0 °C 29.7 in /  1005.3 hPa ENE 5 mph /  8.0 km/h 7 mph /  11.3 km/h 70 % 0 in /  0.0 mm
17:02 76.6 °F /  24.8 °C 66.2 °F /  19.0 °C 29.7 in /  1005.0 hPa ENE 5 mph /  8.0 km/h 7 mph /  11.3 km/h 70 % 0 in /  0.0 mm
17:12 76.6 °F /  24.8 °C 66.2 °F /  19.0 °C 29.7 in /  1005.0 hPa East 5 mph /  8.0 km/h 7 mph /  11.3 km/h 70 % 0 in /  0.0 mm
17:17 76.5 °F /  24.7 °C 66 °F /  18.9 °C 29.7 in /  1005.0 hPa East 2 mph /  3.2 km/h 7 mph /  11.3 km/h 70 % 0 in /  0.0 mm
17:22 76.5 °F /  24.7 °C 65.5 °F /  18.6 °C 29.7 in /  1004.6 hPa ENE 2 mph /  3.2 km/h 7 mph /  11.3 km/h 69 % 0 in /  0.0 mm
17:27 76.6 °F /  24.8 °C 66.2 °F /  19.0 °C 29.7 in /  1004.6 hPa Calm   6 mph /  9.7 km/h 70 % 0 in /  0.0 mm
17:32 76.5 °F /  24.7 °C 66.4 °F /  19.1 °C 29.7 in /  1004.6 hPa West 3 mph /  4.8 km/h 6 mph /  9.7 km/h 71 % 0 in /  0.0 mm
17:37 76.5 °F /  24.7 °C 66 °F /  18.9 °C 29.7 in /  1004.6 hPa SW 1 mph /  1.6 km/h 4 mph /  6.4 km/h 70 % 0 in /  0.0 mm
17:42 76.5 °F /  24.7 °C 66 °F /  18.9 °C 29.7 in /  1004.6 hPa WSW 3 mph /  4.8 km/h 4 mph /  6.4 km/h 70 % 0 in /  0.0 mm
17:47 76.5 °F /  24.7 °C 66.7 °F /  19.3 °C 29.7 in /  1004.3 hPa Calm   4 mph /  6.4 km/h 72 % 0 in /  0.0 mm
17:57 76.3 °F /  24.6 °C 66.2 °F /  19.0 °C 29.7 in /  1004.3 hPa West 2 mph /  3.2 km/h 6 mph /  9.7 km/h 71 % 0 in /  0.0 mm
18:07 75.6 °F /  24.2 °C 64.2 °F /  17.9 °C 29.7 in /  1004.3 hPa SW 5 mph /  8.0 km/h 12 mph /  19.3 km/h 68 % 0 in /  0.0 mm
18:17 75.4 °F /  24.1 °C 62.8 °F /  17.1 °C 29.7 in /  1004.3 hPa West 4 mph /  6.4 km/h 12 mph /  19.3 km/h 65 % 0 in /  0.0 mm
18:27 75.4 °F /  24.1 °C 62.4 °F /  16.9 °C 29.7 in /  1004.3 hPa SW 6 mph /  9.7 km/h 15 mph /  24.1 km/h 64 % 0 in /  0.0 mm
18:32 75.6 °F /  24.2 °C 62.6 °F /  17.0 °C 29.7 in /  1004.3 hPa West 7 mph /  11.3 km/h 16 mph /  25.7 km/h 64 % 0 in /  0.0 mm
18:37 75.4 °F /  24.1 °C 62.8 °F /  17.1 °C 29.6 in /  1003.9 hPa WSW 10 mph /  16.1 km/h 16 mph /  25.7 km/h 65 % 0 in /  0.0 mm
18:42 74.8 °F /  23.8 °C 63.1 °F /  17.3 °C 29.6 in /  1003.9 hPa SW 3 mph /  4.8 km/h 20 mph /  32.2 km/h 67 % 0 in /  0.0 mm
18:52 73.8 °F /  23.2 °C 62.6 °F /  17.0 °C 29.6 in /  1003.9 hPa SW 14 mph /  22.5 km/h 20 mph /  32.2 km/h 68 % 0 in /  0.0 mm
18:57 73.4 °F /  23.0 °C 62.6 °F /  17.0 °C 29.6 in /  1003.9 hPa West 4 mph /  6.4 km/h 16 mph /  25.7 km/h 69 % 0 in /  0.0 mm
19:02 72.9 °F /  22.7 °C 62.4 °F /  16.9 °C 29.6 in /  1003.6 hPa WSW 13 mph /  20.9 km/h 16 mph /  25.7 km/h 70 % 0 in /  0.0 mm
19:07 72.3 °F /  22.4 °C 63.1 °F /  17.3 °C 29.6 in /  1003.3 hPa West 5 mph /  8.0 km/h 16 mph /  25.7 km/h 73 % 0 in /  0.0 mm
19:12 71.6 °F /  22.0 °C 63.3 °F /  17.4 °C 29.6 in /  1003.3 hPa West 6 mph /  9.7 km/h 16 mph /  25.7 km/h 75 % 0 in /  0.0 mm
19:17 71.2 °F /  21.8 °C 63.3 °F /  17.4 °C 29.6 in /  1002.9 hPa Calm   15 mph /  24.1 km/h 76 % 0 in /  0.0 mm
19:22 71.1 °F /  21.7 °C 63.1 °F /  17.3 °C 29.6 in /  1002.9 hPa NW 2 mph /  3.2 km/h 15 mph /  24.1 km/h 76 % 0 in /  0.0 mm
19:32 70.9 °F /  21.6 °C 63.3 °F /  17.4 °C 29.6 in /  1002.9 hPa Calm   8 mph /  12.9 km/h 77 % 0 in /  0.0 mm
19:42 70.5 °F /  21.4 °C 63.3 °F /  17.4 °C 29.6 in /  1003.3 hPa Calm   4 mph /  6.4 km/h 78 % 0 in /  0.0 mm
19:52 70.3 °F /  21.3 °C 63.1 °F /  17.3 °C 29.6 in /  1003.3 hPa Calm   4 mph /  6.4 km/h 78 % 0 in /  0.0 mm
20:02 70.3 °F /  21.3 °C 63.1 °F /  17.3 °C 29.6 in /  1003.3 hPa Calm   4 mph /  6.4 km/h 78 % 0 in /  0.0 mm
20:12 70.2 °F /  21.2 °C 63.3 °F /  17.4 °C 29.6 in /  1003.6 hPa Calm   3 mph /  4.8 km/h 79 % 0 in /  0.0 mm
20:17 70 °F /  21.1 °C 63.9 °F /  17.7 °C 29.6 in /  1003.6 hPa Calm   3 mph /  4.8 km/h 81 % 0 in /  0.0 mm
20:22 69.6 °F /  20.9 °C 63.5 °F /  17.5 °C 29.6 in /  1003.9 hPa East 5 mph /  8.0 km/h 5 mph /  8.0 km/h 81 % 0 in /  0.0 mm
20:27 69.3 °F /  20.7 °C 63.9 °F /  17.7 °C 29.6 in /  1003.9 hPa SSE 2 mph /  3.2 km/h 7 mph /  11.3 km/h 83 % 0 in /  0.0 mm
20:37 68.7 °F /  20.4 °C 64 °F /  17.8 °C 29.7 in /  1004.3 hPa SW 1 mph /  1.6 km/h 7 mph /  11.3 km/h 85 % 0 in /  0.0 mm
20:42 68.5 °F /  20.3 °C 63.9 °F /  17.7 °C 29.7 in /  1004.3 hPa SSW 2 mph /  3.2 km/h 7 mph /  11.3 km/h 85 % 0 in /  0.0 mm
20:47 68.4 °F /  20.2 °C 64 °F /  17.8 °C 29.7 in /  1004.3 hPa SSW 4 mph /  6.4 km/h 5 mph /  8.0 km/h 86 % 0 in /  0.0 mm
20:52 68.2 °F /  20.1 °C 64.2 °F /  17.9 °C 29.7 in /  1004.3 hPa SW 6 mph /  9.7 km/h 6 mph /  9.7 km/h 87 % 0 in /  0.0 mm
20:57 68.2 °F /  20.1 °C 64.2 °F /  17.9 °C 29.7 in /  1004.3 hPa SW 5 mph /  8.0 km/h 10 mph /  16.1 km/h 87 % 0 in /  0.0 mm
21:02 67.8 °F /  19.9 °C 64.2 °F /  17.9 °C 29.7 in /  1004.3 hPa SW 8 mph /  12.9 km/h 10 mph /  16.1 km/h 88 % 0 in /  0.0 mm
21:12 67.5 °F /  19.7 °C 64 °F /  17.8 °C 29.7 in /  1004.3 hPa SSW 3 mph /  4.8 km/h 10 mph /  16.1 km/h 89 % 0 in /  0.0 mm
21:22 67.1 °F /  19.5 °C 63.7 °F /  17.6 °C 29.7 in /  1004.6 hPa SSW 7 mph /  11.3 km/h 9 mph /  14.5 km/h 89 % 0 in /  0.0 mm
21:32 66.9 °F /  19.4 °C 63.9 °F /  17.7 °C 29.7 in /  1005.0 hPa SW 7 mph /  11.3 km/h 13 mph /  20.9 km/h 90 % 0 in /  0.0 mm
21:37 66.7 °F /  19.3 °C 63.7 °F /  17.6 °C 29.7 in /  1005.0 hPa SW 11 mph /  17.7 km/h 11 mph /  17.7 km/h 90 % 0 in /  0.0 mm
21:47 66.7 °F /  19.3 °C 64 °F /  17.8 °C 29.7 in /  1004.6 hPa SSW 8 mph /  12.9 km/h 11 mph /  17.7 km/h 91 % 0 in /  0.0 mm
21:52 66.7 °F /  19.3 °C 64 °F /  17.8 °C 29.7 in /  1004.6 hPa SW 5 mph /  8.0 km/h 11 mph /  17.7 km/h 91 % 0 in /  0.0 mm
22:02 66.6 °F /  19.2 °C 63.5 °F /  17.5 °C 29.6 in /  1003.9 hPa SSW 5 mph /  8.0 km/h 11 mph /  17.7 km/h 90 % 0 in /  0.0 mm
22:12 66.4 °F /  19.1 °C 63.3 °F /  17.4 °C 29.6 in /  1003.9 hPa SW 6 mph /  9.7 km/h 11 mph /  17.7 km/h 90 % 0 in /  0.0 mm
22:17 66.4 °F /  19.1 °C 63.3 °F /  17.4 °C 29.6 in /  1003.9 hPa SSW 4 mph /  6.4 km/h 10 mph /  16.1 km/h 90 % 0 in /  0.0 mm
22:22 66.2 °F /  19.0 °C 63.1 °F /  17.3 °C 29.7 in /  1004.3 hPa SW 3 mph /  4.8 km/h 10 mph /  16.1 km/h 90 % 0 in /  0.0 mm
22:27 66 °F /  18.9 °C 63 °F /  17.2 °C 29.7 in /  1004.3 hPa SW 5 mph /  8.0 km/h 10 mph /  16.1 km/h 90 % 0 in /  0.0 mm
22:32 66 °F /  18.9 °C 63 °F /  17.2 °C 29.7 in /  1004.3 hPa SSE 6 mph /  9.7 km/h 10 mph /  16.1 km/h 90 % 0 in /  0.0 mm
22:37 66 °F /  18.9 °C 63 °F /  17.2 °C 29.7 in /  1004.6 hPa South 5 mph /  8.0 km/h 8 mph /  12.9 km/h 90 % 0 in /  0.0 mm
22:42 66 °F /  18.9 °C 62.6 °F /  17.0 °C 29.7 in /  1004.6 hPa SSW 5 mph /  8.0 km/h 8 mph /  12.9 km/h 89 % 0 in /  0.0 mm
22:52 65.8 °F /  18.8 °C 62.2 °F /  16.8 °C 29.7 in /  1005.0 hPa SW 6 mph /  9.7 km/h 8 mph /  12.9 km/h 88 % 0 in /  0.0 mm
22:57 65.8 °F /  18.8 °C 61.5 °F /  16.4 °C 29.7 in /  1005.0 hPa SW 9 mph /  14.5 km/h 12 mph /  19.3 km/h 86 % 0 in /  0.0 mm
23:02 65.8 °F /  18.8 °C 61.2 °F /  16.2 °C 29.7 in /  1005.0 hPa SW 7 mph /  11.3 km/h 12 mph /  19.3 km/h 85 % 0 in /  0.0 mm
23:12 65.8 °F /  18.8 °C 61.2 °F /  16.2 °C 29.7 in /  1004.6 hPa WSW 9 mph /  14.5 km/h 13 mph /  20.9 km/h 85 % 0 in /  0.0 mm
23:17 65.8 °F /  18.8 °C 61.5 °F /  16.4 °C 29.7 in /  1004.6 hPa SW 9 mph /  14.5 km/h 16 mph /  25.7 km/h 86 % 0 in /  0.0 mm
23:22 65.7 °F /  18.7 °C 61.3 °F /  16.3 °C 29.7 in /  1004.6 hPa South 5 mph /  8.0 km/h 16 mph /  25.7 km/h 86 % 0 in /  0.0 mm
23:27 65.5 °F /  18.6 °C 61.2 °F /  16.2 °C 29.7 in /  1004.3 hPa SW 9 mph /  14.5 km/h 15 mph /  24.1 km/h 86 % 0 in /  0.0 mm
23:32 65.3 °F /  18.5 °C 61 °F /  16.1 °C 29.7 in /  1004.6 hPa South 5 mph /  8.0 km/h 15 mph /  24.1 km/h 86 % 0 in /  0.0 mm
23:37 65.1 °F /  18.4 °C 60.8 °F /  16.0 °C 29.7 in /  1004.6 hPa SW 4 mph /  6.4 km/h 11 mph /  17.7 km/h 86 % 0 in /  0.0 mm
23:42 65.1 °F /  18.4 °C 60.4 °F /  15.8 °C 29.7 in /  1004.6 hPa SW 6 mph /  9.7 km/h 11 mph /  17.7 km/h 85 % 0 in /  0.0 mm
23:47 65.1 °F /  18.4 °C 60.1 °F /  15.6 °C 29.7 in /  1004.6 hPa SSW 2 mph /  3.2 km/h 11 mph /  17.7 km/h 84 % 0 in /  0.0 mm
23:52 65.1 °F /  18.4 °C 59.9 °F /  15.5 °C 29.7 in /  1004.6 hPa SSW 5 mph /  8.0 km/h 11 mph /  17.7 km/h 83 % 0 in /  0.0 mm
23:57 64.9 °F /  18.3 °C 59.7 °F /  15.4 °C 29.7 in /  1004.6 hPa WSW 10 mph /  16.1 km/h 12 mph /  19.3 km/h 83 % 0 in /  0.0 mm
Meteo18
Compliments of Weather Underground - 4 mb

Script developed by  Jim McMurry - jmcmurry@mwt.net Adapted for the template by  Wim van der Kuil - Leuven-Template.eu

You find our weather info also at:

European Weather Network

Weather Underground

Equipment we use:

Weather-station
Davis Vue

Weather-program
Meteohub

Weather-server
Raspberry PI 2 B+

Provider
1 and 1

Davis Vue

Meteohub

Raspberry PI 2 B+

1 and 1